GW1942 Weather Reports


time (UTC)temp
F
wind
direction
speed
knots
gust
knots
rain 1hr
in
rain 24hr
in
rain mn
in
humidity
%
barometer
mb
20230208180100 38 132 0.0 3.5 0.00 0.07 0.00 69 1026.2
20230208174549 37 132 0.0 0.0 0.00 0.07 0.00 70 1026.0
20230208173043 37 132 0.0 0.0 0.00 0.07 0.00 71 1025.9
20230208171541 36 132 0.9 3.5 0.00 0.07 0.00 72 1025.4
20230208170042 36 132 0.9 6.1 0.00 0.07 0.00 73 1025.2
20230208164540 35 132 2.6 6.1 0.00 0.07 0.00 75 1024.9
20230208163035 34 132 0.0 2.6 0.00 0.07 0.00 78 1024.8
20230208161536 34 132 0.0 0.0 0.00 0.07 0.00 77 1024.7
20230208160030 34 132 0.9 4.3 0.00 0.07 0.00 76 1024.1
20230208154544 33 132 1.7 2.6 0.00 0.07 0.00 78 1024.0
20230208153025 34 132 0.9 1.7 0.00 0.07 0.00 73 1023.5
20230208151523 34 132 0.9 3.5 0.00 0.07 0.00 73 1023.1
20230208150023 34 132 1.7 4.3 0.00 0.07 0.00 74 1022.5
20230208144522 35 132 0.9 4.3 0.00 0.07 0.00 73 1022.4
20230208143021 35 132 1.7 9.6 0.00 0.07 0.00 71 1022.2
20230208141522 35 132 5.2 8.7 0.00 0.07 0.00 71 1022.4
20230208140015 34 132 4.3 7.0 0.00 0.07 0.00 75 1022.1
20230208134513 33 132 1.7 6.1 0.00 0.07 0.00 77 1021.7
20230208133011 33 132 0.0 1.7 0.00 0.07 0.00 79 1021.6
20230208131509 34 132 0.0 5.2 0.00 0.07 0.00 76 1021.5
20230208130009 33 132 1.7 6.1 0.00 0.07 0.00 80 1021.2
20230208124505 33 132 0.9 2.6 0.00 0.07 0.00 82 1020.8
20230208123008 34 132 0.0 2.6 0.00 0.07 0.00 81 1021.0
20230208121502 34 132 0.9 3.5 0.00 0.07 0.00 80 1020.8
20230208120100 34 132 0.9 4.3 0.00 0.07 0.00 79 1020.5
20230208114615 34 132 3.5 6.1 0.00 0.07 0.00 79 1020.0
20230208113101 33 132 0.0 0.9 0.00 0.07 0.00 82 1019.9
20230208111601 35 132 0.0 2.6 0.00 0.07 0.00 78 1019.7
20230208110053 35 132 1.7 10.4 0.00 0.07 0.00 78 1019.6
20230208104551 35 132 2.6 7.8 0.00 0.07 0.00 80 1019.3
20230208103049 35 132 3.5 7.0 0.00 0.07 0.00 83 1019.3
20230208101547 35 132 0.0 4.3 0.00 0.07 0.00 85 1019.0
20230208100045 34 132 3.5 8.7 0.00 0.07 0.00 87 1018.8
20230208094549 33 132 2.6 6.1 0.00 0.07 0.00 89 1018.6
20230208093045 33 132 0.0 0.9 0.00 0.07 0.00 90 1018.7
20230208091538 34 132 0.0 0.0 0.00 0.07 0.00 90 1018.4
20230208090040 34 132 0.0 0.0 0.00 0.07 0.00 90 1018.2
20230208084534 34 132 0.0 1.7 0.00 0.07 0.00 90 1018.1
20230208083034 34 132 0.0 4.3 0.00 0.07 0.00 90 1018.2
20230208081534 34 132 2.6 4.3 0.00 0.07 0.00 91 1017.6
20230208080031 34 132 0.9 3.5 0.00 0.07 0.00 91 1017.6
20230208074529 35 132 3.5 7.0 0.00 0.07 0.00 90 1017.5
20230208073027 35 132 1.7 5.2 0.00 0.07 0.00 91 1017.6
20230208071525 35 132 2.6 7.0 0.01 0.07 0.00 92 1017.3
20230208070027 35 132 0.9 4.3 0.02 0.07 0.00 93 1017.3
20230208064526 35 132 0.0 3.5 0.02 0.07 0.07 92 1017.3
20230208063028 35 132 0.0 1.7 0.02 0.07 0.07 92 1017.0
20230208061521 35 132 0.0 1.7 0.02 0.06 0.06 91 1017.4
20230208060020 35 132 0.9 3.5 0.01 0.05 0.05 91 1016.7
20230208054518 35 132 0.0 3.5 0.01 0.05 0.05 91 1017.0
20230208053019 35 132 0.0 2.6 0.01 0.05 0.05 90 1016.9
20230208051536 36 132 0.0 3.5 0.00 0.04 0.04 90 1017.2
20230208050016 36 132 0.0 2.6 0.01 0.04 0.04 89 1017.0
20230208044516 36 132 0.0 3.5 0.01 0.04 0.04 88 1017.2
20230208043019 37 132 2.6 11.3 0.01 0.04 0.04 87 1017.5
20230208041524 37 132 4.3 12.2 0.00 0.03 0.03 85 1017.9
20230208040024 38 132 4.3 13.0 0.00 0.03 0.03 85 1017.7
20230208034530 37 132 5.2 13.9 0.00 0.03 0.03 86 1017.3
20230208033018 37 133 4.3 12.2 0.00 0.03 0.03 87 1017.4
20230208031511 37 132 4.3 9.6 0.00 0.03 0.03 88 1017.5
20230208030008 36 132 6.1 9.6 0.01 0.03 0.03 89 1017.5
20230208024505 36 132 5.2 9.6 0.01 0.03 0.03 89 1017.9
20230208023003 36 132 4.3 8.7 0.02 0.03 0.03 89 1018.0
20230208021502 36 132 5.2 9.6 0.02 0.03 0.03 88 1017.9
20230208020001 37 132 4.3 8.7 0.01 0.02 0.02 86 1018.1
20230208014605 37 132 2.6 5.2 0.01 0.02 0.02 85 1018.3
20230208013058 37 131 1.7 6.1 0.00 0.01 0.01 83 1018.5
20230208011558 38 132 2.6 7.8 0.00 0.01 0.01 81 1018.6
20230208010105 38 132 5.2 9.6 0.00 0.01 0.01 80 1018.4
20230208004556 39 132 4.3 8.7 0.00 0.01 0.01 78 1018.6
20230208003055 39 132 2.6 5.2 0.00 0.01 0.01 76 1018.8
20230208001558 40 132 0.9 7.8 0.00 0.01 0.01 75 1018.7
20230208000055 40 132 5.2 10.4 0.00 0.01 0.01 73 1018.7
20230207234558 40 132 3.5 6.1 0.00 0.01 0.01 73 1018.9
20230207233056 40 132 2.6 7.0 0.00 0.01 0.01 73 1019.0
20230207231552 40 132 3.5 8.7 0.00 0.01 0.01 72 1019.2
20230207230052 40 132 4.3 11.3 0.01 0.01 0.01 77 1019.2
20230207224548 39 132 5.2 7.8 0.01 0.01 0.01 80 1019.5
20230207223047 38 132 4.3 9.6 0.01 0.01 0.01 82 1019.8
20230207221543 38 132 2.6 6.1 0.01 0.01 0.01 83 1020.4
20230207220050 39 131 5.2 12.2 0.00 0.00 0.00 81 1020.7
20230207214541 39 132 5.2 12.2 0.00 0.00 0.00 79 1020.7
20230207213040 40 132 5.2 10.4 0.00 0.00 0.00 79 1020.9
20230207211538 39 132 4.3 7.0 0.00 0.00 0.00 81 1021.1
20230207210036 40 132 3.5 7.0 0.00 0.00 0.00 81 1021.4
20230207204534 40 132 5.2 7.8 0.00 0.00 0.00 81 1021.7
20230207203039 40 132 3.5 9.6 0.00 0.00 0.00 81 1022.1
20230207201531 40 132 1.7 7.8 0.00 0.00 0.00 81 1022.2
20230207200046 40 132 5.2 10.4 0.00 0.00 0.00 79 1022.4
20230207194533 41 132 1.7 7.8 0.00 0.00 0.00 78 1022.9
20230207193031 41 132 2.6 7.8 0.00 0.00 0.00 76 1023.0
20230207191531 41 132 2.6 8.7 0.00 0.00 0.00 75 1023.2
20230207190024 41 132 4.3 7.0 0.00 0.00 0.00 74 1023.4
20230207184522 41 132 1.7 6.1 0.00 0.00 0.00 72 1023.4
20230207183020 41 132 1.7 5.2 0.00 0.00 0.00 73 1023.5
20230207181517 40 132 0.0 4.3 0.00 0.00 0.00 73 1023.6